sensor_id;sensor_type;location;lat;lon;timestamp;temperature;humidity
23703;DHT22;12030;50.376;8.762;2022-07-10T00:00:07;13.70;99.90
23703;DHT22;12030;50.376;8.762;2022-07-10T00:02:34;13.70;99.90
23703;DHT22;12030;50.376;8.762;2022-07-10T00:04:59;13.70;99.90
23703;DHT22;12030;50.376;8.762;2022-07-10T00:07:25;13.70;99.90
23703;DHT22;12030;50.376;8.762;2022-07-10T00:09:50;13.60;99.90
23703;DHT22;12030;50.376;8.762;2022-07-10T00:12:16;13.50;99.90
23703;DHT22;12030;50.376;8.762;2022-07-10T00:14:42;13.50;99.90
23703;DHT22;12030;50.376;8.762;2022-07-10T00:17:08;13.40;99.90
23703;DHT22;12030;50.376;8.762;2022-07-10T00:19:33;13.30;99.90
23703;DHT22;12030;50.376;8.762;2022-07-10T00:21:59;13.20;99.90
23703;DHT22;12030;50.376;8.762;2022-07-10T00:24:24;13.20;99.90
23703;DHT22;12030;50.376;8.762;2022-07-10T00:26:50;13.20;99.90
23703;DHT22;12030;50.376;8.762;2022-07-10T00:29:15;13.10;99.90
23703;DHT22;12030;50.376;8.762;2022-07-10T00:31:41;13.00;99.90
23703;DHT22;12030;50.376;8.762;2022-07-10T00:34:07;12.90;99.90
23703;DHT22;12030;50.376;8.762;2022-07-10T00:36:32;12.80;99.90
23703;DHT22;12030;50.376;8.762;2022-07-10T00:38:58;12.70;99.90
23703;DHT22;12030;50.376;8.762;2022-07-10T00:41:23;12.60;99.90
23703;DHT22;12030;50.376;8.762;2022-07-10T00:43:55;12.60;99.90
23703;DHT22;12030;50.376;8.762;2022-07-10T00:46:21;12.60;99.90
23703;DHT22;12030;50.376;8.762;2022-07-10T00:48:48;12.60;99.90
23703;DHT22;12030;50.376;8.762;2022-07-10T00:51:15;12.50;99.90
23703;DHT22;12030;50.376;8.762;2022-07-10T00:53:42;12.60;99.90
23703;DHT22;12030;50.376;8.762;2022-07-10T00:56:11;12.70;99.90
23703;DHT22;12030;50.376;8.762;2022-07-10T00:58:37;12.70;99.90
23703;DHT22;12030;50.376;8.762;2022-07-10T01:01:04;12.70;99.90
23703;DHT22;12030;50.376;8.762;2022-07-10T01:03:30;12.60;99.90
23703;DHT22;12030;50.376;8.762;2022-07-10T01:05:56;12.60;99.90
23703;DHT22;12030;50.376;8.762;2022-07-10T01:08:22;12.60;99.90
23703;DHT22;12030;50.376;8.762;2022-07-10T01:10:48;12.60;99.90
23703;DHT22;12030;50.376;8.762;2022-07-10T01:13:14;12.50;99.90
23703;DHT22;12030;50.376;8.762;2022-07-10T01:15:40;12.60;99.90
23703;DHT22;12030;50.376;8.762;2022-07-10T01:18:06;12.70;99.90
23703;DHT22;12030;50.376;8.762;2022-07-10T01:20:33;12.80;99.90
23703;DHT22;12030;50.376;8.762;2022-07-10T01:22:59;12.90;99.90
23703;DHT22;12030;50.376;8.762;2022-07-10T01:25:25;12.90;99.90
23703;DHT22;12030;50.376;8.762;2022-07-10T01:27:51;12.80;99.90
23703;DHT22;12030;50.376;8.762;2022-07-10T01:30:17;12.80;99.90
23703;DHT22;12030;50.376;8.762;2022-07-10T01:32:46;12.80;99.90
23703;DHT22;12030;50.376;8.762;2022-07-10T01:35:13;12.70;99.90
23703;DHT22;12030;50.376;8.762;2022-07-10T01:37:39;12.60;99.90
23703;DHT22;12030;50.376;8.762;2022-07-10T01:40:06;12.60;99.90
23703;DHT22;12030;50.376;8.762;2022-07-10T01:42:32;12.50;99.90
23703;DHT22;12030;50.376;8.762;2022-07-10T01:44:58;12.50;99.90
23703;DHT22;12030;50.376;8.762;2022-07-10T01:47:23;12.50;99.90
23703;DHT22;12030;50.376;8.762;2022-07-10T01:49:51;12.40;99.90
23703;DHT22;12030;50.376;8.762;2022-07-10T01:52:18;12.40;99.90
23703;DHT22;12030;50.376;8.762;2022-07-10T01:54:43;12.40;99.90
23703;DHT22;12030;50.376;8.762;2022-07-10T01:57:09;12.40;99.90
23703;DHT22;12030;50.376;8.762;2022-07-10T01:59:35;12.50;99.90
23703;DHT22;12030;50.376;8.762;2022-07-10T02:02:00;12.30;99.90
23703;DHT22;12030;50.376;8.762;2022-07-10T02:04:26;12.30;99.90
23703;DHT22;12030;50.376;8.762;2022-07-10T02:07:27;12.30;99.90
23703;DHT22;12030;50.376;8.762;2022-07-10T02:09:52;12.30;99.90
23703;DHT22;12030;50.376;8.762;2022-07-10T02:12:18;12.30;99.90
23703;DHT22;12030;50.376;8.762;2022-07-10T02:14:43;12.30;99.90
23703;DHT22;12030;50.376;8.762;2022-07-10T02:17:09;12.40;99.90
23703;DHT22;12030;50.376;8.762;2022-07-10T02:19:35;12.40;99.90
23703;DHT22;12030;50.376;8.762;2022-07-10T02:22:01;12.40;99.90
23703;DHT22;12030;50.376;8.762;2022-07-10T02:24:27;12.40;99.90
23703;DHT22;12030;50.376;8.762;2022-07-10T02:26:52;12.40;99.90
23703;DHT22;12030;50.376;8.762;2022-07-10T02:29:20;12.30;99.90
23703;DHT22;12030;50.376;8.762;2022-07-10T02:31:45;12.40;99.90
23703;DHT22;12030;50.376;8.762;2022-07-10T02:34:11;12.40;99.90
23703;DHT22;12030;50.376;8.762;2022-07-10T02:36:38;12.40;99.90
23703;DHT22;12030;50.376;8.762;2022-07-10T02:39:05;12.30;99.90
23703;DHT22;12030;50.376;8.762;2022-07-10T02:41:30;12.30;99.90
23703;DHT22;12030;50.376;8.762;2022-07-10T02:43:56;12.30;99.90
23703;DHT22;12030;50.376;8.762;2022-07-10T02:46:22;12.40;99.90
23703;DHT22;12030;50.376;8.762;2022-07-10T02:48:47;12.40;99.90
23703;DHT22;12030;50.376;8.762;2022-07-10T02:51:13;12.30;99.90
23703;DHT22;12030;50.376;8.762;2022-07-10T02:53:39;12.30;99.90
23703;DHT22;12030;50.376;8.762;2022-07-10T02:56:04;12.30;99.90
23703;DHT22;12030;50.376;8.762;2022-07-10T02:58:30;12.30;99.90
23703;DHT22;12030;50.376;8.762;2022-07-10T03:00:56;12.20;99.90
23703;DHT22;12030;50.376;8.762;2022-07-10T03:03:21;12.10;99.90
23703;DHT22;12030;50.376;8.762;2022-07-10T03:05:47;12.00;99.90
23703;DHT22;12030;50.376;8.762;2022-07-10T03:08:13;12.00;99.90
23703;DHT22;12030;50.376;8.762;2022-07-10T03:10:38;12.00;99.90
23703;DHT22;12030;50.376;8.762;2022-07-10T03:13:04;11.90;99.90
23703;DHT22;12030;50.376;8.762;2022-07-10T03:15:30;11.90;99.90
23703;DHT22;12030;50.376;8.762;2022-07-10T03:17:56;11.90;99.90
23703;DHT22;12030;50.376;8.762;2022-07-10T03:20:21;11.80;99.90
23703;DHT22;12030;50.376;8.762;2022-07-10T03:22:47;11.80;99.90
23703;DHT22;12030;50.376;8.762;2022-07-10T03:25:12;11.70;99.90
23703;DHT22;12030;50.376;8.762;2022-07-10T03:27:39;11.70;99.90
23703;DHT22;12030;50.376;8.762;2022-07-10T03:30:05;11.80;99.90
23703;DHT22;12030;50.376;8.762;2022-07-10T03:32:31;11.80;99.90
23703;DHT22;12030;50.376;8.762;2022-07-10T03:34:57;11.70;99.90
23703;DHT22;12030;50.376;8.762;2022-07-10T03:37:22;11.70;99.90
23703;DHT22;12030;50.376;8.762;2022-07-10T03:39:48;11.80;99.90
23703;DHT22;12030;50.376;8.762;2022-07-10T03:42:13;11.60;99.90
23703;DHT22;12030;50.376;8.762;2022-07-10T03:44:39;11.60;99.90
23703;DHT22;12030;50.376;8.762;2022-07-10T03:47:05;11.60;99.90
23703;DHT22;12030;50.376;8.762;2022-07-10T03:49:30;11.60;99.90
23703;DHT22;12030;50.376;8.762;2022-07-10T03:51:59;11.60;99.90
23703;DHT22;12030;50.376;8.762;2022-07-10T03:54:25;11.70;99.90
23703;DHT22;12030;50.376;8.762;2022-07-10T03:56:51;11.80;99.90
23703;DHT22;12030;50.376;8.762;2022-07-10T03:59:35;11.90;99.90
23703;DHT22;12030;50.376;8.762;2022-07-10T04:02:01;11.90;99.90
23703;DHT22;12030;50.376;8.762;2022-07-10T04:04:26;11.90;99.90
23703;DHT22;12030;50.376;8.762;2022-07-10T04:06:53;11.90;99.90
23703;DHT22;12030;50.376;8.762;2022-07-10T04:09:18;11.90;99.90
23703;DHT22;12030;50.376;8.762;2022-07-10T04:11:44;11.90;99.90
23703;DHT22;12030;50.376;8.762;2022-07-10T04:14:09;11.90;99.90
23703;DHT22;12030;50.376;8.762;2022-07-10T04:16:35;11.90;99.90
23703;DHT22;12030;50.376;8.762;2022-07-10T04:19:00;11.90;99.90
23703;DHT22;12030;50.376;8.762;2022-07-10T04:21:26;12.00;99.90
23703;DHT22;12030;50.376;8.762;2022-07-10T04:23:51;12.00;99.90
23703;DHT22;12030;50.376;8.762;2022-07-10T04:26:17;12.00;99.90
23703;DHT22;12030;50.376;8.762;2022-07-10T04:28:42;12.10;99.90
23703;DHT22;12030;50.376;8.762;2022-07-10T04:31:08;12.20;99.90
23703;DHT22;12030;50.376;8.762;2022-07-10T04:33:33;12.20;99.90
23703;DHT22;12030;50.376;8.762;2022-07-10T04:35:59;12.30;99.90
23703;DHT22;12030;50.376;8.762;2022-07-10T04:38:25;12.40;99.90
23703;DHT22;12030;50.376;8.762;2022-07-10T04:40:50;12.50;99.90
23703;DHT22;12030;50.376;8.762;2022-07-10T04:43:16;12.70;99.90
23703;DHT22;12030;50.376;8.762;2022-07-10T04:45:41;12.80;99.90
23703;DHT22;12030;50.376;8.762;2022-07-10T04:48:07;12.90;99.90
23703;DHT22;12030;50.376;8.762;2022-07-10T04:50:32;12.90;99.90
23703;DHT22;12030;50.376;8.762;2022-07-10T04:52:58;12.90;99.90
23703;DHT22;12030;50.376;8.762;2022-07-10T04:55:24;13.00;99.90
23703;DHT22;12030;50.376;8.762;2022-07-10T04:57:49;13.10;99.90
23703;DHT22;12030;50.376;8.762;2022-07-10T05:00:15;13.20;99.90
23703;DHT22;12030;50.376;8.762;2022-07-10T05:02:41;13.30;99.90
23703;DHT22;12030;50.376;8.762;2022-07-10T05:05:07;13.30;99.90
23703;DHT22;12030;50.376;8.762;2022-07-10T05:07:33;13.40;99.90
23703;DHT22;12030;50.376;8.762;2022-07-10T05:09:58;13.40;99.90
23703;DHT22;12030;50.376;8.762;2022-07-10T05:12:24;13.50;99.90
23703;DHT22;12030;50.376;8.762;2022-07-10T05:14:49;13.60;99.90
23703;DHT22;12030;50.376;8.762;2022-07-10T05:17:15;13.70;99.90
23703;DHT22;12030;50.376;8.762;2022-07-10T05:19:40;13.70;99.90
23703;DHT22;12030;50.376;8.762;2022-07-10T05:22:06;13.70;99.90
23703;DHT22;12030;50.376;8.762;2022-07-10T05:24:32;13.80;99.90
23703;DHT22;12030;50.376;8.762;2022-07-10T05:26:58;14.00;99.90
23703;DHT22;12030;50.376;8.762;2022-07-10T05:29:23;14.10;99.90
23703;DHT22;12030;50.376;8.762;2022-07-10T05:31:49;14.20;99.90
23703;DHT22;12030;50.376;8.762;2022-07-10T05:34:14;14.10;99.90
23703;DHT22;12030;50.376;8.762;2022-07-10T05:36:40;14.20;99.90
23703;DHT22;12030;50.376;8.762;2022-07-10T05:39:06;14.20;99.90
23703;DHT22;12030;50.376;8.762;2022-07-10T05:41:31;14.10;99.90
23703;DHT22;12030;50.376;8.762;2022-07-10T05:43:59;14.10;99.90
23703;DHT22;12030;50.376;8.762;2022-07-10T05:46:25;14.20;99.90
23703;DHT22;12030;50.376;8.762;2022-07-10T05:48:50;14.30;99.90
23703;DHT22;12030;50.376;8.762;2022-07-10T05:51:16;14.40;99.90
23703;DHT22;12030;50.376;8.762;2022-07-10T05:53:41;14.40;99.90
23703;DHT22;12030;50.376;8.762;2022-07-10T05:56:07;14.50;99.90
23703;DHT22;12030;50.376;8.762;2022-07-10T05:58:32;14.50;99.90
23703;DHT22;12030;50.376;8.762;2022-07-10T06:00:58;14.70;99.90
23703;DHT22;12030;50.376;8.762;2022-07-10T06:03:23;14.80;99.90
23703;DHT22;12030;50.376;8.762;2022-07-10T06:05:49;14.90;99.90
23703;DHT22;12030;50.376;8.762;2022-07-10T06:08:15;15.00;99.90
23703;DHT22;12030;50.376;8.762;2022-07-10T06:10:41;15.10;99.90
23703;DHT22;12030;50.376;8.762;2022-07-10T06:13:09;15.20;99.90
23703;DHT22;12030;50.376;8.762;2022-07-10T06:15:35;15.20;99.90
23703;DHT22;12030;50.376;8.762;2022-07-10T06:18:00;15.30;99.90
23703;DHT22;12030;50.376;8.762;2022-07-10T06:20:26;15.40;99.90
23703;DHT22;12030;50.376;8.762;2022-07-10T06:22:52;15.50;99.90
23703;DHT22;12030;50.376;8.762;2022-07-10T06:25:17;15.50;99.90
23703;DHT22;12030;50.376;8.762;2022-07-10T06:27:43;15.60;99.90
23703;DHT22;12030;50.376;8.762;2022-07-10T06:30:09;15.60;99.90
23703;DHT22;12030;50.376;8.762;2022-07-10T06:32:34;15.60;99.90
23703;DHT22;12030;50.376;8.762;2022-07-10T06:35:00;15.50;99.90
23703;DHT22;12030;50.376;8.762;2022-07-10T06:37:26;15.50;99.90
23703;DHT22;12030;50.376;8.762;2022-07-10T06:39:51;15.60;99.90
23703;DHT22;12030;50.376;8.762;2022-07-10T06:42:17;15.60;99.90
23703;DHT22;12030;50.376;8.762;2022-07-10T06:44:43;15.70;99.90
23703;DHT22;12030;50.376;8.762;2022-07-10T06:47:09;15.70;99.90
23703;DHT22;12030;50.376;8.762;2022-07-10T06:49:54;15.70;99.90
23703;DHT22;12030;50.376;8.762;2022-07-10T06:52:20;15.80;99.90
23703;DHT22;12030;50.376;8.762;2022-07-10T06:54:46;15.80;99.90
23703;DHT22;12030;50.376;8.762;2022-07-10T06:57:12;15.80;99.90
23703;DHT22;12030;50.376;8.762;2022-07-10T06:59:37;15.80;99.90
23703;DHT22;12030;50.376;8.762;2022-07-10T07:02:03;15.70;99.90
23703;DHT22;12030;50.376;8.762;2022-07-10T07:04:29;15.80;99.90
23703;DHT22;12030;50.376;8.762;2022-07-10T07:06:54;15.70;99.90
23703;DHT22;12030;50.376;8.762;2022-07-10T07:09:20;15.70;99.90
23703;DHT22;12030;50.376;8.762;2022-07-10T07:11:46;15.70;99.90
23703;DHT22;12030;50.376;8.762;2022-07-10T07:14:11;15.70;99.90
23703;DHT22;12030;50.376;8.762;2022-07-10T07:16:37;15.70;99.90
23703;DHT22;12030;50.376;8.762;2022-07-10T07:19:11;15.80;99.90
23703;DHT22;12030;50.376;8.762;2022-07-10T07:21:42;15.60;99.90
23703;DHT22;12030;50.376;8.762;2022-07-10T07:24:46;15.90;99.90
23703;DHT22;12030;50.376;8.762;2022-07-10T07:27:13;15.90;99.90
23703;DHT22;12030;50.376;8.762;2022-07-10T07:29:38;15.90;99.90
23703;DHT22;12030;50.376;8.762;2022-07-10T07:32:04;16.00;99.90
23703;DHT22;12030;50.376;8.762;2022-07-10T07:34:29;15.90;99.90
23703;DHT22;12030;50.376;8.762;2022-07-10T07:36:56;15.90;99.90
23703;DHT22;12030;50.376;8.762;2022-07-10T07:39:22;15.90;99.90
23703;DHT22;12030;50.376;8.762;2022-07-10T07:41:47;15.90;99.90
23703;DHT22;12030;50.376;8.762;2022-07-10T07:44:13;16.00;99.90
23703;DHT22;12030;50.376;8.762;2022-07-10T07:46:39;15.90;99.90
23703;DHT22;12030;50.376;8.762;2022-07-10T07:49:04;15.90;99.90
23703;DHT22;12030;50.376;8.762;2022-07-10T07:51:30;16.00;99.90
23703;DHT22;12030;50.376;8.762;2022-07-10T07:53:55;16.00;99.90
23703;DHT22;12030;50.376;8.762;2022-07-10T07:56:20;16.10;99.90
23703;DHT22;12030;50.376;8.762;2022-07-10T07:58:46;16.10;99.90
23703;DHT22;12030;50.376;8.762;2022-07-10T08:01:12;16.20;99.90
23703;DHT22;12030;50.376;8.762;2022-07-10T08:03:37;16.40;99.90
23703;DHT22;12030;50.376;8.762;2022-07-10T08:06:03;16.40;99.90
23703;DHT22;12030;50.376;8.762;2022-07-10T08:08:29;16.50;99.90
23703;DHT22;12030;50.376;8.762;2022-07-10T08:10:54;16.60;99.90
23703;DHT22;12030;50.376;8.762;2022-07-10T08:13:20;16.60;99.90
23703;DHT22;12030;50.376;8.762;2022-07-10T08:15:45;16.60;99.90
23703;DHT22;12030;50.376;8.762;2022-07-10T08:18:11;16.60;99.90
23703;DHT22;12030;50.376;8.762;2022-07-10T08:20:36;16.20;99.90
23703;DHT22;12030;50.376;8.762;2022-07-10T08:23:02;16.80;99.90
23703;DHT22;12030;50.376;8.762;2022-07-10T08:25:28;16.90;99.90
23703;DHT22;12030;50.376;8.762;2022-07-10T08:28:04;17.10;99.90
23703;DHT22;12030;50.376;8.762;2022-07-10T08:30:31;16.80;99.90
23703;DHT22;12030;50.376;8.762;2022-07-10T08:32:57;16.90;99.90
23703;DHT22;12030;50.376;8.762;2022-07-10T08:35:22;17.00;99.90
23703;DHT22;12030;50.376;8.762;2022-07-10T08:37:48;17.20;99.90
23703;DHT22;12030;50.376;8.762;2022-07-10T08:40:15;17.20;99.90
23703;DHT22;12030;50.376;8.762;2022-07-10T08:42:42;17.10;99.90
23703;DHT22;12030;50.376;8.762;2022-07-10T08:45:10;17.20;99.90
23703;DHT22;12030;50.376;8.762;2022-07-10T08:47:35;17.20;99.90
23703;DHT22;12030;50.376;8.762;2022-07-10T08:50:02;17.40;99.90
23703;DHT22;12030;50.376;8.762;2022-07-10T08:52:38;17.50;99.90
23703;DHT22;12030;50.376;8.762;2022-07-10T08:55:07;17.50;99.90
23703;DHT22;12030;50.376;8.762;2022-07-10T08:57:34;17.50;99.90
23703;DHT22;12030;50.376;8.762;2022-07-10T09:00:00;17.40;99.90
23703;DHT22;12030;50.376;8.762;2022-07-10T09:02:25;17.60;99.90
23703;DHT22;12030;50.376;8.762;2022-07-10T09:04:51;17.70;99.90
23703;DHT22;12030;50.376;8.762;2022-07-10T09:07:17;17.60;99.90
23703;DHT22;12030;50.376;8.762;2022-07-10T09:09:54;17.70;99.90
23703;DHT22;12030;50.376;8.762;2022-07-10T09:12:23;17.70;99.90
23703;DHT22;12030;50.376;8.762;2022-07-10T09:14:50;18.00;99.90
23703;DHT22;12030;50.376;8.762;2022-07-10T09:17:17;18.10;99.90
23703;DHT22;12030;50.376;8.762;2022-07-10T09:19:43;18.20;99.90
23703;DHT22;12030;50.376;8.762;2022-07-10T09:22:11;18.40;99.90
23703;DHT22;12030;50.376;8.762;2022-07-10T09:24:45;18.40;99.90
23703;DHT22;12030;50.376;8.762;2022-07-10T09:27:12;18.50;99.90
23703;DHT22;12030;50.376;8.762;2022-07-10T09:29:49;18.60;99.90
23703;DHT22;12030;50.376;8.762;2022-07-10T09:32:17;18.80;99.90
23703;DHT22;12030;50.376;8.762;2022-07-10T09:34:52;19.00;99.90
23703;DHT22;12030;50.376;8.762;2022-07-10T09:37:41;19.10;99.90
23703;DHT22;12030;50.376;8.762;2022-07-10T09:40:08;18.90;99.90
23703;DHT22;12030;50.376;8.762;2022-07-10T09:42:38;18.70;99.90
23703;DHT22;12030;50.376;8.762;2022-07-10T09:47:59;18.70;99.90
23703;DHT22;12030;50.376;8.762;2022-07-10T09:50:28;18.60;99.90
23703;DHT22;12030;50.376;8.762;2022-07-10T09:53:02;18.60;99.90
23703;DHT22;12030;50.376;8.762;2022-07-10T09:55:33;18.60;99.90
23703;DHT22;12030;50.376;8.762;2022-07-10T09:58:01;18.50;99.90
23703;DHT22;12030;50.376;8.762;2022-07-10T10:00:32;18.40;99.90
23703;DHT22;12030;50.376;8.762;2022-07-10T10:03:03;18.30;99.90
23703;DHT22;12030;50.376;8.762;2022-07-10T10:05:53;18.40;99.90
23703;DHT22;12030;50.376;8.762;2022-07-10T10:08:27;18.20;99.90
23703;DHT22;12030;50.376;8.762;2022-07-10T10:10:57;18.40;99.90
23703;DHT22;12030;50.376;8.762;2022-07-10T10:13:24;18.60;99.90
23703;DHT22;12030;50.376;8.762;2022-07-10T10:15:51;19.20;99.90
23703;DHT22;12030;50.376;8.762;2022-07-10T10:18:21;19.40;99.90
23703;DHT22;12030;50.376;8.762;2022-07-10T10:20:48;19.40;98.30
23703;DHT22;12030;50.376;8.762;2022-07-10T10:23:16;19.60;98.70
23703;DHT22;12030;50.376;8.762;2022-07-10T10:25:50;19.50;98.90
23703;DHT22;12030;50.376;8.762;2022-07-10T10:28:17;19.60;99.60
23703;DHT22;12030;50.376;8.762;2022-07-10T10:30:49;19.50;99.20
23703;DHT22;12030;50.376;8.762;2022-07-10T10:36:00;19.60;98.80
23703;DHT22;12030;50.376;8.762;2022-07-10T10:41:26;19.90;97.00
23703;DHT22;12030;50.376;8.762;2022-07-10T10:46:34;20.30;95.70
23703;DHT22;12030;50.376;8.762;2022-07-10T10:49:07;20.40;96.80
23703;DHT22;12030;50.376;8.762;2022-07-10T10:51:57;20.10;96.10
23703;DHT22;12030;50.376;8.762;2022-07-10T11:00:01;20.10;96.30
23703;DHT22;12030;50.376;8.762;2022-07-10T11:02:30;20.50;96.70
23703;DHT22;12030;50.376;8.762;2022-07-10T11:07:58;20.60;96.00
23703;DHT22;12030;50.376;8.762;2022-07-10T11:10:34;20.90;96.70
23703;DHT22;12030;50.376;8.762;2022-07-10T11:13:05;21.20;95.10
23703;DHT22;12030;50.376;8.762;2022-07-10T11:15:33;21.20;94.50
23703;DHT22;12030;50.376;8.762;2022-07-10T11:20:33;20.50;94.50
23703;DHT22;12030;50.376;8.762;2022-07-10T11:25:51;20.00;96.00
23703;DHT22;12030;50.376;8.762;2022-07-10T11:28:50;20.10;97.40
23703;DHT22;12030;50.376;8.762;2022-07-10T11:31:20;20.20;95.70
23703;DHT22;12030;50.376;8.762;2022-07-10T11:33:48;20.60;95.30
23703;DHT22;12030;50.376;8.762;2022-07-10T11:36:17;21.00;95.50
23703;DHT22;12030;50.376;8.762;2022-07-10T11:38:44;21.70;96.90
23703;DHT22;12030;50.376;8.762;2022-07-10T11:41:14;22.20;95.50
23703;DHT22;12030;50.376;8.762;2022-07-10T11:44:00;22.30;96.00
23703;DHT22;12030;50.376;8.762;2022-07-10T11:46:28;22.20;94.10
23703;DHT22;12030;50.376;8.762;2022-07-10T11:48:55;22.20;92.00
23703;DHT22;12030;50.376;8.762;2022-07-10T11:51:35;22.00;91.80
23703;DHT22;12030;50.376;8.762;2022-07-10T11:54:12;22.00;92.10
23703;DHT22;12030;50.376;8.762;2022-07-10T11:56:40;21.70;92.20
23703;DHT22;12030;50.376;8.762;2022-07-10T11:59:10;21.90;93.80
23703;DHT22;12030;50.376;8.762;2022-07-10T12:01:46;22.10;93.10
23703;DHT22;12030;50.376;8.762;2022-07-10T12:04:14;23.30;93.80
23703;DHT22;12030;50.376;8.762;2022-07-10T12:06:42;21.40;91.10
23703;DHT22;12030;50.376;8.762;2022-07-10T12:09:11;21.60;92.00
23703;DHT22;12030;50.376;8.762;2022-07-10T12:11:38;22.00;92.80
23703;DHT22;12030;50.376;8.762;2022-07-10T12:14:19;22.20;91.60
23703;DHT22;12030;50.376;8.762;2022-07-10T12:16:49;22.30;91.80
23703;DHT22;12030;50.376;8.762;2022-07-10T12:19:19;22.30;90.80
23703;DHT22;12030;50.376;8.762;2022-07-10T12:21:46;22.20;91.60
23703;DHT22;12030;50.376;8.762;2022-07-10T12:24:13;21.80;91.30
23703;DHT22;12030;50.376;8.762;2022-07-10T12:26:42;21.60;91.90
23703;DHT22;12030;50.376;8.762;2022-07-10T12:29:22;21.50;91.40
23703;DHT22;12030;50.376;8.762;2022-07-10T12:31:50;21.20;92.50
23703;DHT22;12030;50.376;8.762;2022-07-10T12:34:17;21.40;93.70
23703;DHT22;12030;50.376;8.762;2022-07-10T12:39:10;21.20;93.30
23703;DHT22;12030;50.376;8.762;2022-07-10T12:47:13;21.50;93.00
23703;DHT22;12030;50.376;8.762;2022-07-10T12:49:52;21.30;92.40
23703;DHT22;12030;50.376;8.762;2022-07-10T12:52:29;21.20;92.70
23703;DHT22;12030;50.376;8.762;2022-07-10T13:00:17;21.40;92.70
23703;DHT22;12030;50.376;8.762;2022-07-10T13:02:44;21.50;92.40
23703;DHT22;12030;50.376;8.762;2022-07-10T13:05:31;21.70;94.00
23703;DHT22;12030;50.376;8.762;2022-07-10T13:08:05;21.90;93.30
23703;DHT22;12030;50.376;8.762;2022-07-10T13:10:33;21.50;92.10
23703;DHT22;12030;50.376;8.762;2022-07-10T13:12:59;21.80;93.10
23703;DHT22;12030;50.376;8.762;2022-07-10T13:15:25;21.80;92.50
23703;DHT22;12030;50.376;8.762;2022-07-10T13:17:50;21.80;93.80
23703;DHT22;12030;50.376;8.762;2022-07-10T13:20:16;21.70;92.60
23703;DHT22;12030;50.376;8.762;2022-07-10T13:22:41;21.50;92.40
23703;DHT22;12030;50.376;8.762;2022-07-10T13:25:08;21.70;93.80
23703;DHT22;12030;50.376;8.762;2022-07-10T13:27:34;21.70;94.00
23703;DHT22;12030;50.376;8.762;2022-07-10T13:30:03;21.50;93.10
23703;DHT22;12030;50.376;8.762;2022-07-10T13:32:28;21.30;92.90
23703;DHT22;12030;50.376;8.762;2022-07-10T13:34:54;21.00;93.20
23703;DHT22;12030;50.376;8.762;2022-07-10T13:37:20;21.00;94.20
23703;DHT22;12030;50.376;8.762;2022-07-10T13:39:45;20.70;95.00
23703;DHT22;12030;50.376;8.762;2022-07-10T13:42:11;20.60;94.50
23703;DHT22;12030;50.376;8.762;2022-07-10T13:44:36;20.50;96.10
23703;DHT22;12030;50.376;8.762;2022-07-10T13:47:02;20.40;95.70
23703;DHT22;12030;50.376;8.762;2022-07-10T13:49:28;20.30;96.00
23703;DHT22;12030;50.376;8.762;2022-07-10T13:51:54;20.30;95.70
23703;DHT22;12030;50.376;8.762;2022-07-10T13:54:19;20.40;96.20
23703;DHT22;12030;50.376;8.762;2022-07-10T13:56:45;20.30;95.40
23703;DHT22;12030;50.376;8.762;2022-07-10T13:59:10;20.50;96.70
23703;DHT22;12030;50.376;8.762;2022-07-10T14:01:36;20.70;96.00
23703;DHT22;12030;50.376;8.762;2022-07-10T14:04:01;20.80;95.50
23703;DHT22;12030;50.376;8.762;2022-07-10T14:06:27;20.90;95.00
23703;DHT22;12030;50.376;8.762;2022-07-10T14:08:52;21.00;96.00
23703;DHT22;12030;50.376;8.762;2022-07-10T14:11:18;21.00;95.60
23703;DHT22;12030;50.376;8.762;2022-07-10T14:13:44;21.20;96.60
23703;DHT22;12030;50.376;8.762;2022-07-10T14:16:10;21.50;96.90
23703;DHT22;12030;50.376;8.762;2022-07-10T14:18:35;21.80;95.70
23703;DHT22;12030;50.376;8.762;2022-07-10T14:21:04;21.80;96.00
23703;DHT22;12030;50.376;8.762;2022-07-10T14:23:31;21.70;94.60
23703;DHT22;12030;50.376;8.762;2022-07-10T14:26:00;21.50;96.10
23703;DHT22;12030;50.376;8.762;2022-07-10T14:28:25;21.10;95.40
23703;DHT22;12030;50.376;8.762;2022-07-10T14:30:51;21.30;95.40
23703;DHT22;12030;50.376;8.762;2022-07-10T14:33:17;21.30;95.20
23703;DHT22;12030;50.376;8.762;2022-07-10T14:35:43;21.30;95.70
23703;DHT22;12030;50.376;8.762;2022-07-10T14:38:09;21.10;95.50
23703;DHT22;12030;50.376;8.762;2022-07-10T14:40:34;21.10;95.50
23703;DHT22;12030;50.376;8.762;2022-07-10T14:43:00;20.90;95.90
23703;DHT22;12030;50.376;8.762;2022-07-10T14:45:25;21.00;96.60
23703;DHT22;12030;50.376;8.762;2022-07-10T14:47:51;20.90;96.30
23703;DHT22;12030;50.376;8.762;2022-07-10T14:50:17;20.90;96.60
23703;DHT22;12030;50.376;8.762;2022-07-10T14:52:43;20.70;96.70
23703;DHT22;12030;50.376;8.762;2022-07-10T14:55:09;20.80;97.40
23703;DHT22;12030;50.376;8.762;2022-07-10T14:57:34;20.60;97.30
23703;DHT22;12030;50.376;8.762;2022-07-10T15:00:00;20.60;97.40
23703;DHT22;12030;50.376;8.762;2022-07-10T15:02:26;20.50;97.10
23703;DHT22;12030;50.376;8.762;2022-07-10T15:04:51;20.60;98.20
23703;DHT22;12030;50.376;8.762;2022-07-10T15:07:17;20.50;97.50
23703;DHT22;12030;50.376;8.762;2022-07-10T15:09:44;20.60;98.10
23703;DHT22;12030;50.376;8.762;2022-07-10T15:12:09;20.60;98.00
23703;DHT22;12030;50.376;8.762;2022-07-10T15:14:35;20.70;98.40
23703;DHT22;12030;50.376;8.762;2022-07-10T15:17:00;20.70;97.80
23703;DHT22;12030;50.376;8.762;2022-07-10T15:19:26;20.50;97.30
23703;DHT22;12030;50.376;8.762;2022-07-10T15:21:51;20.70;97.80
23703;DHT22;12030;50.376;8.762;2022-07-10T15:24:17;20.70;98.00
23703;DHT22;12030;50.376;8.762;2022-07-10T15:26:42;20.70;97.90
23703;DHT22;12030;50.376;8.762;2022-07-10T15:29:08;20.80;98.00
23703;DHT22;12030;50.376;8.762;2022-07-10T15:31:34;20.80;98.00
23703;DHT22;12030;50.376;8.762;2022-07-10T15:34:06;20.80;97.40
23703;DHT22;12030;50.376;8.762;2022-07-10T15:36:33;20.80;98.00
23703;DHT22;12030;50.376;8.762;2022-07-10T15:38:58;20.70;97.70
23703;DHT22;12030;50.376;8.762;2022-07-10T15:41:24;20.70;97.50
23703;DHT22;12030;50.376;8.762;2022-07-10T15:43:49;20.70;97.90
23703;DHT22;12030;50.376;8.762;2022-07-10T15:46:15;20.80;98.20
23703;DHT22;12030;50.376;8.762;2022-07-10T15:48:41;20.80;97.60
23703;DHT22;12030;50.376;8.762;2022-07-10T15:51:07;20.60;97.60
23703;DHT22;12030;50.376;8.762;2022-07-10T15:53:32;20.60;97.90
23703;DHT22;12030;50.376;8.762;2022-07-10T15:55:58;20.60;98.20
23703;DHT22;12030;50.376;8.762;2022-07-10T15:58:24;20.70;98.80
23703;DHT22;12030;50.376;8.762;2022-07-10T16:00:49;20.70;98.70
23703;DHT22;12030;50.376;8.762;2022-07-10T16:03:14;20.60;98.10
23703;DHT22;12030;50.376;8.762;2022-07-10T16:05:40;20.60;98.20
23703;DHT22;12030;50.376;8.762;2022-07-10T16:08:06;20.50;98.20